Accueil
METAR-TAF:

METAR-TAF

Aéroports :

Brigham City, Utah, États-Unis

latitude: 41-33-09N, longitude: 112-03-44W, altitude: 1289 m

Observation

Le bulletin a été fait il y a 26 minutes, à 00:50 UTC
Vent 3 kt de sud-est
Température 7°C
Humidité 45%
Pression 1028 hPa
Visibilité: 16.1 km
Ciel clair

METAR: KBMC 120050Z AUTO 14003KT 10SM CLR 07/M04 A3037 RMK AO1 T00651044

Heure: 18:16 (01:16 UTC)


TAF: absent

Observations et prévisions météorologiques de plus de 4000 aéroports (messages METAR et TAF).

Les stations disponibles sont représentées par des disques jaunes et rouges sur la carte.

Passer la souris dessus pour voir le nom de la station.

Cliquer dessus pour voir les observations et prévisions météorologiques.

Pour changer de carte: cliquez sur les boutons verts avec une croix noire pour zoomer, sur le bouton vert avec un tiret pour effectuer un zoom arrière, ou sur les flèches vertes pour les cartes adjacentes.


METAR-TAF: